Time;durP1;ratioP1;P1;durP2;ratioP2;P2;SDS_P1;SDS_P2;PMS_P1;PMS_P2;Temp;Humidity;BMP_temperature;BMP_pressure;BME280_temperature;BME280_humidity;BME280_pressure;Samples;Min_cycle;Max_cycle;Signal;HPM_P1;HPM_P2
2021/10/20 00:02:29;;;;;;;162.12;43.20;;;;;;;-1.97;82.78;100414.00;1672060;85;20985;-67
2021/10/20 00:05:02;;;;;;;158.80;43.58;;;;;;;-1.92;82.99;100412.84;1672296;85;21044;-66
2021/10/20 00:07:38;;;;;;;151.95;41.68;;;;;;;-1.86;83.23;100411.99;1672023;85;21057;-66
2021/10/20 00:10:16;;;;;;;166.80;45.00;;;;;;;-1.79;83.52;100412.27;1672119;85;21009;-68
2021/10/20 00:12:42;;;;;;;165.03;44.15;;;;;;;-1.75;83.43;100401.90;1671125;84;21133;-67
2021/10/20 00:15:17;;;;;;;155.85;46.45;;;;;;;-1.71;83.44;100403.09;1671869;84;21111;-68
2021/10/20 00:17:45;;;;;;;168.83;44.93;;;;;;;-1.71;83.45;100395.84;1672333;85;20962;-68
2021/10/20 00:20:17;;;;;;;155.57;45.05;;;;;;;-1.71;83.44;100394.50;1646432;87;21378;-68
2021/10/20 00:22:44;;;;;;;142.70;42.27;;;;;;;-1.71;83.46;100394.50;1646230;86;21097;-67
2021/10/20 00:25:12;;;;;;;140.82;42.38;;;;;;;-1.69;83.43;100390.25;1646352;87;21101;-67
2021/10/20 00:27:41;;;;;;;155.97;44.55;;;;;;;-1.70;83.38;100391.28;1645767;85;21081;-67
2021/10/20 00:30:17;;;;;;;161.43;45.28;;;;;;;-1.69;83.50;100382.17;1646297;87;21035;-66
2021/10/20 00:32:47;;;;;;;173.05;47.53;;;;;;;-1.68;83.53;100385.16;1646000;86;21049;-67
2021/10/20 00:35:21;;;;;;;171.13;43.75;;;;;;;-1.67;83.66;100379.56;1646338;86;21009;-67
2021/10/20 00:37:56;;;;;;;154.80;44.80;;;;;;;-1.64;83.77;100370.75;1646165;85;21512;-67
2021/10/20 00:40:29;;;;;;;150.15;44.10;;;;;;;-1.61;83.87;100373.02;1621842;85;21544;-67
2021/10/20 00:42:57;;;;;;;141.32;39.55;;;;;;;-1.60;84.02;100365.24;1646282;86;21548;-67
2021/10/20 00:45:28;;;;;;;128.38;35.50;;;;;;;-1.57;84.20;100366.16;1645961;87;21077;-67
2021/10/20 00:47:55;;;;;;;129.40;37.65;;;;;;;-1.57;84.43;100353.52;1645470;87;21023;-66
2021/10/20 00:50:28;;;;;;;128.47;35.63;;;;;;;-1.52;84.75;100356.91;1621751;87;20942;-65
2021/10/20 00:53:02;;;;;;;114.32;33.58;;;;;;;-1.48;85.04;100349.52;1646163;87;21013;-66
2021/10/20 00:55:31;;;;;;;99.80;29.60;;;;;;;-1.40;85.29;100353.83;1642838;86;21097;-66
2021/10/20 00:58:06;;;;;;;86.30;28.60;;;;;;;-1.32;85.45;100352.22;1634593;87;21137;-67
2021/10/20 01:00:39;;;;;;;79.05;24.95;;;;;;;-1.25;85.68;100353.52;1634711;86;21089;-67
2021/10/20 01:03:15;;;;;;;85.28;25.72;;;;;;;-1.17;85.77;100345.98;1635631;87;21010;-67
2021/10/20 01:05:47;;;;;;;77.80;25.20;;;;;;;-1.08;85.81;100345.16;1634161;87;20998;-65
2021/10/20 01:08:20;;;;;;;83.07;26.35;;;;;;;-0.97;85.69;100342.27;1614095;87;27059;-65
2021/10/20 01:10:50;;;;;;;76.25;25.97;;;;;;;-0.89;85.49;100346.86;1614333;87;21025;-65
2021/10/20 01:13:19;;;;;;;73.40;24.12;;;;;;;-0.84;85.40;100332.72;1633921;86;21509;-65
2021/10/20 01:15:53;;;;;;;81.08;24.72;;;;;;;-0.77;85.55;100329.44;1632672;87;23255;-65
2021/10/20 01:18:24;;;;;;;63.42;21.65;;;;;;;-0.71;85.71;100329.38;1640007;86;20995;-67
2021/10/20 01:21:04;;;;;;;55.15;20.35;;;;;;;-0.63;85.78;100336.34;1639100;86;21003;-66
2021/10/20 01:23:35;;;;;;;69.80;20.50;;;;;;;-0.56;85.70;100339.77;1659959;86;21058;-65
2021/10/20 01:26:05;;;;;;;80.38;21.62;;;;;;;-0.47;85.59;100343.00;1660065;86;21047;-67
2021/10/20 01:28:37;;;;;;;91.57;22.17;;;;;;;-0.40;85.37;100338.36;1659751;86;21162;-66
2021/10/20 01:31:07;;;;;;;89.70;23.15;;;;;;;-0.35;85.31;100337.98;1639099;86;21042;-64
2021/10/20 01:33:38;;;;;;;87.15;23.65;;;;;;;-0.28;84.83;100345.17;1660006;86;21046;-63
2021/10/20 01:36:04;;;;;;;79.12;22.45;;;;;;;-0.24;84.66;100348.55;1660095;86;20970;-68
2021/10/20 01:38:37;;;;;;;80.57;21.65;;;;;;;-0.20;84.72;100356.50;1659975;86;21568;-67
2021/10/20 01:41:05;;;;;;;64.03;18.02;;;;;;;-0.17;84.99;100351.17;1639272;86;21470;-67
2021/10/20 01:43:46;;;;;;;62.05;17.62;;;;;;;-0.16;84.83;100346.90;1659812;86;21038;-65
2021/10/20 01:46:19;;;;;;;65.28;17.80;;;;;;;-0.17;84.74;100347.95;1655086;86;21475;-65
2021/10/20 01:48:55;;;;;;;52.80;17.85;;;;;;;-0.16;84.82;100342.03;1658581;85;21058;-64
2021/10/20 01:51:21;;;;;;;44.77;14.65;;;;;;;-0.15;84.91;100344.50;1659779;86;21038;-66
2021/10/20 01:53:50;;;;;;;44.55;14.75;;;;;;;-0.13;85.05;100341.58;1659975;86;21150;-66
2021/10/20 01:56:23;;;;;;;47.17;15.30;;;;;;;-0.11;85.09;100340.30;1665174;85;20911;-66
2021/10/20 01:58:52;;;;;;;41.10;14.10;;;;;;;-0.09;85.04;100342.25;1668431;84;20939;-66
2021/10/20 02:01:22;;;;;;;42.20;13.80;;;;;;;-0.06;85.00;100340.97;1643643;86;20951;-66
2021/10/20 02:03:51;;;;;;;44.15;14.58;;;;;;;-0.07;84.87;100334.75;1646455;87;20993;-66
2021/10/20 02:06:25;;;;;;;36.55;13.65;;;;;;;-0.05;84.82;100339.39;1670349;84;21163;-66
2021/10/20 02:08:54;;;;;;;34.38;13.35;;;;;;;-0.06;84.49;100340.97;1701969;84;21500;-66
2021/10/20 02:11:26;;;;;;;30.93;12.73;;;;;;;-0.08;83.94;100341.72;1701958;83;20911;-66
2021/10/20 02:13:56;;;;;;;33.65;12.53;;;;;;;-0.08;83.77;100341.72;1701885;84;21065;-66
2021/10/20 02:16:28;;;;;;;36.00;13.00;;;;;;;-0.07;83.69;100344.72;1674787;84;21018;-66
2021/10/20 02:18:59;;;;;;;32.30;13.05;;;;;;;-0.05;83.88;100340.74;1686984;84;21166;-66
2021/10/20 02:21:28;;;;;;;31.23;12.58;;;;;;;-0.01;83.73;100337.89;1672494;85;21094;-66
2021/10/20 02:23:59;;;;;;;31.50;11.97;;;;;;;0.05;83.28;100345.57;1672355;85;21025;-66
2021/10/20 02:26:36;;;;;;;29.77;13.25;;;;;;;0.10;83.03;100340.84;1647082;84;22220;-66
2021/10/20 02:29:08;;;;;;;30.77;12.75;;;;;;;0.13;82.74;100338.52;1672344;85;21534;-66
2021/10/20 02:31:39;;;;;;;28.27;11.43;;;;;;;0.18;82.57;100341.87;1665320;85;21203;-66
2021/10/20 02:34:11;;;;;;;28.75;12.55;;;;;;;0.22;82.50;100339.84;1651903;85;21524;-66
2021/10/20 02:36:41;;;;;;;31.05;12.63;;;;;;;0.25;82.45;100342.61;1646594;87;21569;-66
2021/10/20 02:39:14;;;;;;;27.70;12.80;;;;;;;0.29;82.85;100341.11;1643774;85;21096;-65
2021/10/20 02:41:44;;;;;;;27.65;12.23;;;;;;;0.33;82.79;100328.27;1646521;87;20972;-65
2021/10/20 02:44:13;;;;;;;26.57;12.18;;;;;;;0.37;82.79;100335.37;1646472;87;21838;-66
2021/10/20 02:46:48;;;;;;;34.83;13.40;;;;;;;0.41;82.94;100329.81;1622100;87;21306;-65
2021/10/20 02:49:21;;;;;;;30.45;13.18;;;;;;;0.47;82.76;100330.25;1644063;87;21509;-66
2021/10/20 02:51:49;;;;;;;29.95;12.85;;;;;;;0.53;82.86;100334.73;1646377;85;21005;-66
2021/10/20 02:54:23;;;;;;;33.65;13.35;;;;;;;0.58;82.43;100343.46;1646086;86;21085;-66
2021/10/20 02:56:51;;;;;;;31.75;13.85;;;;;;;0.60;82.19;100340.83;1653807;85;21192;-65
2021/10/20 02:59:19;;;;;;;31.10;14.68;;;;;;;0.64;81.91;100343.89;1644912;85;20921;-65
2021/10/20 03:01:51;;;;;;;26.60;13.08;;;;;;;0.68;81.56;100353.71;1666924;83;21036;-64
2021/10/20 03:04:24;;;;;;;39.50;14.45;;;;;;;0.70;81.51;100355.13;1683024;83;20929;-64
2021/10/20 03:06:57;;;;;;;35.17;15.58;;;;;;;0.71;82.09;100362.18;1683824;85;20956;-65
2021/10/20 03:09:25;;;;;;;37.48;13.75;;;;;;;0.75;81.94;100373.35;1666441;85;21499;-66
2021/10/20 03:11:57;;;;;;;39.78;15.20;;;;;;;0.83;81.85;100367.62;1690038;83;21401;-73
2021/10/20 03:14:31;;;;;;;41.53;16.30;;;;;;;0.88;81.58;100363.16;1666237;85;21001;-66
2021/10/20 03:17:03;;;;;;;36.35;14.98;;;;;;;0.94;81.39;100363.59;1666210;85;20984;-74
2021/10/20 03:19:38;;;;;;;35.13;15.23;;;;;;;1.02;81.25;100368.36;1689077;83;21048;-65
2021/10/20 03:22:08;;;;;;;;;;;;;;;1.06;81.63;100373.06;1691322;85;21187;-66
2021/10/20 03:24:37;;;;;;;40.88;15.95;;;;;;;1.10;81.80;100366.66;1681962;85;20478;-65
2021/10/20 03:27:11;;;;;;;42.27;16.75;;;;;;;1.13;82.04;100367.02;1665653;84;20997;-68
2021/10/20 03:29:40;;;;;;;55.35;20.65;;;;;;;1.19;82.05;100355.77;1645292;85;21034;-69
2021/10/20 03:32:10;;;;;;;50.45;21.12;;;;;;;1.25;82.53;100350.24;1688946;84;21003;-68
2021/10/20 03:34:42;;;;;;;43.95;20.17;;;;;;;1.32;83.05;100346.89;1643868;86;21184;-67
2021/10/20 03:37:13;;;;;;;59.38;26.87;;;;;;;1.40;84.28;100335.42;1646748;85;20973;-68
2021/10/20 03:39:42;;;;;;;67.53;29.82;;;;;;;1.46;84.62;100335.83;1688966;83;21044;-67
2021/10/20 03:42:13;;;;;;;68.83;28.32;;;;;;;1.54;85.38;100334.12;1688768;85;20980;-67
2021/10/20 03:44:44;;;;;;;56.83;27.40;;;;;;;1.63;85.75;100328.10;1665267;85;21449;-66
2021/10/20 03:47:29;;;;;;;52.45;25.50;;;;;;;1.72;86.55;100321.80;1689155;85;21821;-67
2021/10/20 03:49:51;;;;;;;41.00;21.60;;;;;;;1.81;87.37;100320.33;1664987;85;20941;-67
2021/10/20 03:52:24;;;;;;;48.78;21.42;;;;;;;1.88;88.22;100310.19;1689381;85;21044;-67
2021/10/20 03:54:55;;;;;;;57.20;26.30;;;;;;;1.95;89.43;100307.34;1689489;83;20985;-67
2021/10/20 03:57:26;;;;;;;58.05;27.00;;;;;;;1.98;89.87;100317.16;1679711;85;20946;-68
2021/10/20 04:00:01;;;;;;;;;;;;;;;2.04;90.20;100317.27;1676713;84;21139;-68
2021/10/20 04:02:32;;;;;;;56.28;27.93;;;;;;;2.12;90.33;100328.54;1673222;85;20140;-68
2021/10/20 04:05:11;;;;;;;59.38;30.77;;;;;;;2.18;90.40;100326.22;1673421;85;20967;-66
2021/10/20 04:07:40;;;;;;;56.02;27.00;;;;;;;2.21;90.05;100324.91;1674075;85;20963;-66
2021/10/20 04:10:16;;;;;;;44.00;22.35;;;;;;;2.23;89.78;100324.14;1668454;85;21509;-66
2021/10/20 04:12:47;;;;;;;40.38;22.02;;;;;;;2.23;89.54;100333.62;1674237;84;21232;-66
2021/10/20 04:15:16;;;;;;;42.98;21.17;;;;;;;2.26;89.55;100334.50;1673854;85;21450;-66
2021/10/20 04:17:48;;;;;;;39.70;19.82;;;;;;;2.30;89.39;100335.66;1674177;85;20956;-67
2021/10/20 04:20:21;;;;;;;41.33;19.35;;;;;;;2.31;89.51;100328.61;1673893;85;20971;-67
2021/10/20 04:22:48;;;;;;;40.65;20.65;;;;;;;2.35;89.52;100324.06;1674433;85;20995;-66
2021/10/20 04:25:18;;;;;;;51.53;21.75;;;;;;;2.38;89.86;100324.40;1674134;85;21550;-66
2021/10/20 04:27:50;;;;;;;45.50;21.05;;;;;;;2.38;89.88;100329.81;1674097;85;20991;-66
2021/10/20 04:30:20;;;;;;;48.40;22.62;;;;;;;2.40;89.98;100333.11;1674464;85;21534;-66
2021/10/20 04:32:48;;;;;;;46.33;21.27;;;;;;;2.41;90.01;100327.98;1674407;85;20999;-66
2021/10/20 04:35:25;;;;;;;46.33;23.52;;;;;;;2.41;89.97;100328.52;1673698;85;20975;-66
2021/10/20 04:37:57;;;;;;;45.50;22.20;;;;;;;2.41;90.03;100332.58;1674421;84;21088;-66
2021/10/20 04:40:27;;;;;;;44.83;20.90;;;;;;;2.41;90.08;100333.93;1653106;85;21462;-66
2021/10/20 04:42:57;;;;;;;56.75;22.70;;;;;;;2.40;89.99;100329.05;1674415;85;20911;-67
2021/10/20 04:45:26;;;;;;;41.33;21.68;;;;;;;2.39;90.05;100326.05;1673959;85;20943;-67
2021/10/20 04:48:02;;;;;;;43.90;21.93;;;;;;;2.39;90.08;100318.45;1651606;85;21022;-67
2021/10/20 04:50:32;;;;;;;41.35;20.57;;;;;;;2.41;90.23;100307.66;1674352;85;21525;-67
2021/10/20 04:53:04;;;;;;;43.95;19.52;;;;;;;2.45;90.27;100300.68;1653276;85;20900;-67
2021/10/20 04:55:35;;;;;;;37.35;18.87;;;;;;;2.48;90.41;100294.77;1673727;85;20923;-67
2021/10/20 04:58:09;;;;;;;36.93;18.67;;;;;;;2.52;90.48;100291.04;1674154;83;20924;-68
2021/10/20 05:00:43;;;;;;;43.95;20.92;;;;;;;2.54;90.95;100296.51;1674752;84;20954;-67
2021/10/20 05:03:18;;;;;;;42.35;20.45;;;;;;;2.58;90.90;100286.00;1675456;84;21451;-68
2021/10/20 05:05:50;;;;;;;40.73;19.20;;;;;;;2.61;91.00;100280.09;1654268;85;21007;-67
2021/10/20 05:08:24;;;;;;;40.50;19.87;;;;;;;2.64;91.07;100281.77;1675300;84;20995;-67
2021/10/20 05:10:53;;;;;;;40.50;19.07;;;;;;;2.65;91.04;100273.11;1675867;85;21491;-66
2021/10/20 05:13:26;;;;;;;;;;;;;;;2.69;91.06;100275.62;1678328;84;21013;-67
2021/10/20 05:16:00;;;;;;;39.35;18.27;;;;;;;2.70;90.70;100277.26;1667512;85;21205;-68
2021/10/20 05:18:32;;;;;;;33.88;18.27;;;;;;;2.69;90.72;100273.44;1675429;85;21018;-67
2021/10/20 05:21:04;;;;;;;40.92;19.95;;;;;;;2.70;90.85;100272.38;1654707;85;20903;-68
2021/10/20 05:23:33;;;;;;;34.90;16.93;;;;;;;2.70;90.89;100273.19;1675171;85;21446;-68
2021/10/20 05:26:10;;;;;;;39.10;19.92;;;;;;;2.74;91.35;100274.87;1675911;84;20963;-68
2021/10/20 05:28:36;;;;;;;62.08;33.88;;;;;;;2.79;91.72;100283.92;1674918;85;27326;-66
2021/10/20 05:31:05;;;;;;;64.15;34.27;;;;;;;2.86;92.30;100283.75;1674794;85;20927;-67
2021/10/20 05:33:31;;;;;;;52.70;26.07;;;;;;;2.91;92.56;100280.55;1673833;85;21423;-67
2021/10/20 05:36:03;;;;;;;50.60;22.32;;;;;;;2.98;92.95;100282.56;1653004;85;20915;-67
2021/10/20 05:38:38;;;;;;;45.23;21.15;;;;;;;3.07;93.06;100278.90;1653112;85;20911;-68
2021/10/20 05:41:09;;;;;;;35.43;18.35;;;;;;;3.18;93.43;100286.12;1674328;85;22010;-68
2021/10/20 05:43:42;;;;;;;36.70;18.23;;;;;;;3.31;93.93;100283.06;1674233;84;20959;-68
2021/10/20 05:46:10;;;;;;;38.55;19.05;;;;;;;3.45;94.54;100289.48;1674322;85;20907;-68
2021/10/20 05:48:41;;;;;;;41.45;19.87;;;;;;;3.56;95.19;100281.73;1674480;84;21510;-67
2021/10/20 05:51:12;;;;;;;42.80;20.32;;;;;;;3.64;94.91;100286.19;1673829;84;20935;-68
2021/10/20 05:53:44;;;;;;;52.00;22.20;;;;;;;3.71;94.96;100281.11;1673899;84;21115;-68
2021/10/20 05:56:17;;;;;;;37.65;18.42;;;;;;;3.78;94.73;100276.31;1674234;85;20951;-68
2021/10/20 05:58:45;;;;;;;42.20;19.27;;;;;;;3.84;94.64;100259.82;1687528;85;20931;-69
2021/10/20 06:01:17;;;;;;;37.05;18.70;;;;;;;3.91;94.46;100260.45;1689857;84;21107;-69
2021/10/20 06:03:50;;;;;;;38.55;21.62;;;;;;;3.97;94.41;100256.71;1690320;85;20985;-66
2021/10/20 06:06:20;;;;;;;41.92;20.52;;;;;;;4.07;94.63;100257.33;1690136;83;21174;-64
2021/10/20 06:08:49;;;;;;;56.15;24.95;;;;;;;4.15;94.40;100251.98;1690665;84;20949;-67
2021/10/20 06:11:20;;;;;;;75.55;34.75;;;;;;;4.22;94.27;100253.41;1690633;83;21477;-65
2021/10/20 06:13:52;;;;;;;63.92;37.98;;;;;;;4.31;94.29;100246.44;1661220;85;21533;-65
2021/10/20 06:16:24;;;;;;;69.55;38.88;;;;;;;4.42;94.18;100244.64;1690683;85;20938;-66
2021/10/20 06:18:52;;;;;;;51.02;28.95;;;;;;;4.55;93.88;100233.87;1664746;85;20867;-64
2021/10/20 06:21:22;;;;;;;47.55;22.20;;;;;;;4.68;93.55;100236.13;1690593;84;20949;-64
2021/10/20 06:23:52;;;;;;;35.80;18.50;;;;;;;4.84;93.02;100238.42;1665140;85;20958;-65
2021/10/20 06:26:23;;;;;;;38.10;18.75;;;;;;;5.02;92.45;100239.38;1664591;85;21521;-67
2021/10/20 06:28:55;;;;;;;37.73;19.50;;;;;;;5.44;91.20;100239.86;1690734;85;21421;-66
2021/10/20 06:31:22;;;;;;;39.42;20.52;;;;;;;5.44;91.20;100239.86;1677338;84;21234;-66
2021/10/20 06:33:48;;;;;;;35.38;20.15;;;;;;;5.67;90.76;100239.42;1705480;82;21448;-68
2021/10/20 06:36:24;;;;;;;36.58;19.62;;;;;;;5.87;89.30;100234.02;1705541;82;21052;-76
2021/10/20 06:38:51;;;;;;;37.20;20.40;;;;;;;6.03;87.94;100229.46;1705656;82;21009;-76
2021/10/20 06:41:17;;;;;;;38.00;19.90;;;;;;;6.15;86.40;100230.58;1705654;82;20957;-67
2021/10/20 06:43:44;;;;;;;30.45;18.35;;;;;;;6.20;86.25;100220.50;1705420;82;21993;-67
2021/10/20 06:46:12;;;;;;;36.73;20.02;;;;;;;6.26;86.00;100230.33;1705385;84;20858;-66
2021/10/20 06:48:39;;;;;;;37.98;18.80;;;;;;;6.30;85.47;100223.79;1705756;84;21472;-66
2021/10/20 06:51:06;;;;;;;33.65;19.48;;;;;;;6.31;85.04;100220.52;1705393;82;20953;-66
2021/10/20 06:53:34;;;;;;;36.05;19.05;;;;;;;6.32;85.50;100218.06;1705562;84;20941;-66
2021/10/20 06:56:01;;;;;;;39.18;21.87;;;;;;;6.33;85.33;100210.16;1705717;82;21422;-69
2021/10/20 06:58:28;;;;;;;39.35;21.48;;;;;;;6.32;85.60;100205.25;1707107;83;20945;-72
2021/10/20 07:00:54;;;;;;;37.38;19.80;;;;;;;6.37;85.76;100212.05;1708283;82;20894;-68
2021/10/20 07:03:22;;;;;;;39.55;21.68;;;;;;;6.41;85.82;100213.68;1708263;84;20960;-71
2021/10/20 07:05:49;;;;;;;42.13;21.55;;;;;;;6.44;86.01;100204.95;1708296;84;21084;-69
2021/10/20 07:08:15;;;;;;;36.45;18.90;;;;;;;6.46;86.25;100209.05;1708223;84;23297;-69
2021/10/20 07:10:42;;;;;;;39.65;22.32;;;;;;;6.47;86.35;100196.23;1708099;84;21012;-67
2021/10/20 07:13:10;;;;;;;49.70;23.60;;;;;;;6.52;86.45;100201.69;1707853;82;20905;-68
2021/10/20 07:15:37;;;;;;;48.65;22.93;;;;;;;6.56;86.55;100197.32;1707660;83;21005;-68
2021/10/20 07:18:04;;;;;;;45.35;22.62;;;;;;;6.62;86.62;100199.77;1708281;84;20941;-68
2021/10/20 07:20:31;;;;;;;45.40;21.75;;;;;;;6.71;86.75;100204.68;1708221;84;22378;-70
2021/10/20 07:22:59;;;;;;;47.05;23.90;;;;;;;6.83;86.77;100198.39;1708138;84;20988;-68
2021/10/20 07:25:26;;;;;;;39.78;23.50;;;;;;;7.06;86.50;100201.05;1708640;84;21545;-68
2021/10/20 07:27:52;;;;;;;43.55;23.05;;;;;;;7.36;85.82;100209.72;1682047;84;20925;-68
2021/10/20 07:30:19;;;;;;;41.00;21.97;;;;;;;7.67;84.93;100218.05;1708335;84;20988;-68
2021/10/20 07:32:46;;;;;;;42.75;21.05;;;;;;;8.05;83.74;100213.75;1708103;84;23234;-68
2021/10/20 07:35:16;;;;;;;61.75;29.45;;;;;;;8.52;81.83;100191.81;1708231;84;21481;-67
2021/10/20 07:37:43;;;;;;;246.28;120.13;;;;;;;8.98;80.18;100201.77;1681616;84;20981;-68
2021/10/20 07:40:11;;;;;;;82.15;45.30;;;;;;;9.42;78.13;100199.36;1680493;84;20993;-69
2021/10/20 07:42:39;;;;;;;61.30;30.85;;;;;;;9.69;76.32;100191.34;1706714;84;21543;-69
2021/10/20 07:45:08;;;;;;;100.97;46.48;;;;;;;9.87;74.81;100197.38;1705975;82;21103;-65
2021/10/20 07:47:36;;;;;;;80.20;38.75;;;;;;;9.99;74.52;100181.86;1708086;82;21020;-66
2021/10/20 07:50:05;;;;;;;123.07;58.60;;;;;;;10.18;74.08;100188.17;1708362;84;21468;-68
2021/10/20 07:52:34;;;;;;;52.70;28.98;;;;;;;10.50;73.14;100186.02;1708194;84;20921;-66
2021/10/20 07:55:04;;;;;;;47.08;27.22;;;;;;;10.83;71.34;100180.53;1708380;83;20929;-67
2021/10/20 07:57:31;;;;;;;37.93;20.90;;;;;;;11.06;70.45;100169.91;1707471;83;21179;-70
2021/10/20 07:59:57;;;;;;;35.17;19.48;;;;;;;11.25;70.29;100184.94;1708089;84;20941;-68
2021/10/20 08:02:24;;;;;;;55.65;27.60;;;;;;;11.34;69.47;100180.37;1708376;83;21433;-65
2021/10/20 08:04:50;;;;;;;35.78;19.80;;;;;;;11.30;69.13;100166.16;1708161;83;20925;-65
2021/10/20 08:07:17;;;;;;;35.50;19.70;;;;;;;11.14;69.58;100172.52;1708191;82;21064;-64
2021/10/20 08:09:44;;;;;;;32.25;17.67;;;;;;;11.03;69.84;100181.51;1708182;82;21485;-65
2021/10/20 08:12:10;;;;;;;30.77;18.20;;;;;;;10.97;70.47;100164.89;1708119;82;20917;-65
2021/10/20 08:14:41;;;;;;;29.05;17.25;;;;;;;11.18;70.46;100157.86;1708196;84;20940;-68
2021/10/20 08:17:08;;;;;;;35.38;17.48;;;;;;;11.59;69.78;100154.26;1708170;84;20968;-67
2021/10/20 08:19:37;;;;;;;28.25;16.70;;;;;;;12.12;67.75;100141.28;1708263;82;21013;-70
2021/10/20 08:22:06;;;;;;;31.77;17.90;;;;;;;12.48;65.81;100137.06;1708454;84;21980;-69
2021/10/20 08:24:33;;;;;;;28.10;17.57;;;;;;;12.60;65.22;100140.06;1708661;84;20925;-68
2021/10/20 08:26:59;;;;;;;31.40;18.25;;;;;;;12.63;64.87;100140.00;1708367;84;20949;-69
2021/10/20 08:29:29;;;;;;;30.17;18.02;;;;;;;12.68;64.91;100146.75;1708406;84;20961;-69
2021/10/20 08:31:56;;;;;;;30.37;18.07;;;;;;;12.85;64.59;100138.56;1708508;84;21081;-69
2021/10/20 08:34:22;;;;;;;28.52;17.07;;;;;;;13.00;63.53;100129.07;1708578;84;21019;-68
2021/10/20 08:36:52;;;;;;;32.05;17.92;;;;;;;13.11;62.68;100127.66;1708275;84;20958;-77
2021/10/20 08:39:18;;;;;;;31.77;18.60;;;;;;;13.11;62.58;100122.15;1708385;84;21536;-75
2021/10/20 08:41:45;;;;;;;28.73;17.07;;;;;;;13.03;62.73;100120.17;1708511;84;21493;-68
2021/10/20 08:44:13;;;;;;;30.70;18.62;;;;;;;12.94;63.03;100114.62;1660126;84;20989;-73
2021/10/20 08:46:41;;;;;;;34.58;18.40;;;;;;;12.99;63.13;100116.42;1707693;84;21116;-68
2021/10/20 08:49:10;;;;;;;32.88;18.35;;;;;;;13.13;62.81;100109.67;1708613;84;20992;-68
2021/10/20 08:51:37;;;;;;;32.23;18.82;;;;;;;13.44;62.42;100101.91;1682245;84;20913;-68
2021/10/20 08:54:07;;;;;;;31.57;18.30;;;;;;;13.85;61.80;100102.86;1709068;82;20996;-69
2021/10/20 08:56:34;;;;;;;31.20;18.52;;;;;;;14.23;59.76;100093.32;1682399;84;20929;-68
2021/10/20 08:59:02;;;;;;;30.50;16.93;;;;;;;14.31;58.81;100090.31;1679308;84;21165;-72
2021/10/20 09:01:28;;;;;;;33.60;19.55;;;;;;;14.25;59.06;100074.48;1705521;84;20957;-73
2021/10/20 09:04:01;;;;;;;31.02;18.20;;;;;;;14.32;59.31;100080.31;1705574;83;20946;-68
2021/10/20 09:06:29;;;;;;;34.63;19.85;;;;;;;14.52;58.38;100073.29;1705438;82;20937;-68
2021/10/20 09:08:56;;;;;;;31.33;19.07;;;;;;;14.62;57.80;100080.42;1705753;84;20957;-71
2021/10/20 09:11:33;;;;;;;32.78;16.93;;;;;;;14.59;57.18;100076.36;1705570;83;21961;-76
2021/10/20 09:14:13;;;;;;;31.97;17.90;;;;;;;14.42;57.36;100085.53;1705471;82;21484;-71
2021/10/20 09:16:43;;;;;;;33.85;18.98;;;;;;;14.35;58.01;100072.76;1704824;84;20904;-68
2021/10/20 09:19:13;;;;;;;34.70;18.50;;;;;;;14.51;57.53;100079.38;1705262;82;20946;-68
2021/10/20 09:22:08;;;;;;;31.87;18.52;;;;;;;14.60;56.92;100075.79;1705932;82;20977;-71
2021/10/20 09:24:38;;;;;;;32.85;17.27;;;;;;;14.68;56.68;100069.42;1678198;84;21134;-72
2021/10/20 09:27:08;;;;;;;37.20;17.60;;;;;;;14.94;56.53;100062.42;1705754;82;20953;-71
2021/10/20 09:29:35;;;;;;;28.60;16.32;;;;;;;15.40;55.21;100055.96;1677533;84;20968;-70
2021/10/20 09:32:02;;;;;;;28.57;18.42;;;;;;;15.79;53.46;100046.41;1705567;84;20909;-71
2021/10/20 09:34:35;;;;;;;34.67;17.60;;;;;;;15.76;53.04;100046.50;1705655;82;45715;-68
2021/10/20 09:37:05;;;;;;;30.45;18.10;;;;;;;15.68;53.42;100039.08;1705321;83;21198;-68
2021/10/20 09:39:33;;;;;;;38.05;19.15;;;;;;;15.71;53.46;100037.02;1677019;84;21425;-69
2021/10/20 09:42:10;;;;;;;34.05;18.32;;;;;;;15.87;52.78;100031.68;1676971;84;20984;-72
2021/10/20 09:44:53;;;;;;;29.77;16.23;;;;;;;16.09;52.59;100023.01;1704861;84;21045;-69
2021/10/20 09:47:22;;;;;;;24.25;16.02;;;;;;;16.23;51.53;100043.45;1677560;84;21131;-71
2021/10/20 09:49:54;;;;;;;35.05;17.80;;;;;;;16.22;51.68;100019.67;1704458;83;21156;-68
2021/10/20 09:52:23;;;;;;;27.90;16.00;;;;;;;16.48;51.72;100018.81;1704977;84;20996;-69
2021/10/20 09:54:49;;;;;;;32.00;17.00;;;;;;;16.84;50.08;100019.44;1705204;83;20973;-68
2021/10/20 09:57:17;;;;;;;25.02;15.45;;;;;;;16.79;49.66;100016.89;1704809;82;21072;-69
2021/10/20 09:59:45;;;;;;;27.37;15.50;;;;;;;16.43;50.23;100016.27;1707131;83;21005;-68
2021/10/20 10:02:12;;;;;;;29.00;15.43;;;;;;;16.21;51.10;100015.28;1681524;84;21099;-70
2021/10/20 10:04:39;;;;;;;26.70;15.13;;;;;;;16.05;51.52;100006.84;1707613;82;20961;-68
2021/10/20 10:07:07;;;;;;;21.95;13.95;;;;;;;16.00;51.65;100013.16;1681810;84;21567;-67
2021/10/20 10:09:34;;;;;;;23.25;13.53;;;;;;;15.93;51.33;100011.52;1707719;84;21069;-67
2021/10/20 10:12:16;;;;;;;24.43;14.60;;;;;;;15.73;51.98;100003.47;1707974;82;21215;-72
2021/10/20 10:14:48;;;;;;;22.20;12.82;;;;;;;15.55;52.41;100000.61;1708117;83;20922;-67
2021/10/20 10:17:18;;;;;;;28.42;13.03;;;;;;;15.47;52.73;99982.92;1707432;84;21515;-67
2021/10/20 10:19:45;;;;;;;24.07;13.60;;;;;;;15.46;52.74;99993.75;1706417;84;21547;-67
2021/10/20 10:22:24;;;;;;;22.93;12.78;;;;;;;15.43;52.40;99995.81;1706083;84;21116;-70
2021/10/20 10:24:50;;;;;;;21.95;12.73;;;;;;;15.34;52.55;99986.77;1706157;84;21014;-67
2021/10/20 10:27:17;;;;;;;19.50;11.97;;;;;;;15.51;52.17;99986.63;1706191;82;21148;-67
2021/10/20 10:30:05;;;;;;;25.95;13.03;;;;;;;15.61;52.03;99983.46;1705973;84;21001;-68
2021/10/20 10:32:37;;;;;;;24.30;12.20;;;;;;;15.68;52.13;99973.23;1706337;84;20922;-66
2021/10/20 10:35:02;;;;;;;20.32;12.53;;;;;;;15.74;51.99;99965.77;1704962;84;21120;-66
2021/10/20 10:37:33;;;;;;;23.30;11.97;;;;;;;15.74;51.79;99971.30;1681745;84;21116;-70
2021/10/20 10:40:19;;;;;;;24.52;12.28;;;;;;;15.68;51.78;99962.16;1706128;84;21106;-67
2021/10/20 10:42:47;;;;;;;27.27;12.03;;;;;;;15.68;51.84;99950.52;1705979;84;20985;-69
2021/10/20 10:45:16;;;;;;;22.32;11.53;;;;;;;15.80;51.33;99946.98;1706084;84;21004;-72
2021/10/20 10:48:05;;;;;;;20.68;10.98;;;;;;;15.97;51.12;99934.35;1706730;82;21516;-68
2021/10/20 10:50:49;;;;;;;18.90;11.20;;;;;;;16.21;51.01;99931.38;1698706;84;21446;-67
2021/10/20 10:53:33;;;;;;;22.10;12.33;;;;;;;16.50;50.22;99921.48;1706740;84;21163;-68
2021/10/20 10:56:09;;;;;;;26.07;13.80;;;;;;;16.59;48.96;99913.05;1707038;82;20897;-67
2021/10/20 10:59:08;;;;;;;20.90;11.80;;;;;;;16.46;49.40;99907.51;1679722;84;21017;-68
2021/10/20 11:01:47;;;;;;;23.87;11.10;;;;;;;16.49;49.50;99914.32;1615377;88;21639;-68
2021/10/20 11:04:25;;;;;;;22.87;10.60;;;;;;;16.35;48.76;99913.27;1615420;88;20938;-67
2021/10/20 11:06:54;;;;;;;17.73;10.63;;;;;;;16.20;49.01;99894.56;1667872;84;21105;-66
2021/10/20 11:09:31;;;;;;;17.35;10.55;;;;;;;16.17;49.45;99904.97;1703799;84;21413;-67
2021/10/20 11:12:00;;;;;;;20.60;11.48;;;;;;;16.25;49.35;99900.45;1703971;84;21662;-67
2021/10/20 11:14:29;;;;;;;22.13;11.57;;;;;;;16.32;49.25;99908.42;1703972;84;20949;-68
2021/10/20 11:17:09;;;;;;;18.30;10.82;;;;;;;16.34;49.16;99924.13;1703922;84;21024;-68
2021/10/20 11:19:36;;;;;;;26.60;11.22;;;;;;;16.30;49.09;99898.84;1703801;84;21180;-67
2021/10/20 11:22:03;;;;;;;21.93;10.70;;;;;;;16.15;49.19;99883.73;1704221;83;21057;-68
2021/10/20 11:24:35;;;;;;;17.92;11.50;;;;;;;15.97;49.69;99885.90;1704156;84;20933;-66
2021/10/20 11:27:05;;;;;;;23.67;11.53;;;;;;;15.83;50.32;99870.18;1703965;84;21972;-67
2021/10/20 11:29:47;;;;;;;26.62;13.05;;;;;;;15.78;50.57;99869.82;1703970;84;21505;-67
2021/10/20 11:32:16;;;;;;;22.17;13.15;;;;;;;15.81;50.73;99871.91;1703387;83;21158;-66